Crystal Beach, Texas
Current Conditions -  °F | °C
As of 1:52 AM on Monday 26 Jan 2015 (Local Time) from KGLS Reporting Station
Clear Clear  
Wind Chill: 51°   Ceiling: Unl
Heat Index: 51°   Visibility: 10mi
Dew Point: 37°   Wind: 3mph
Humidity: 59%   Direction: 260°W
Pressure: 30.16"   Gusts: NA
Location:  29.4387°N, 94.6622°W
Report Text: KGLS 260752Z AUTO 26003KT 10SM CLR 11/03 A3016 RMK AO2 SLP211 T01060028
Loading
Personal Weather Stations






























Interactive Weather Map New forecast layout! Learn more

10-Day Weather Forecast

Advertisements
Track Severe Weather on mobile